Time;durP1;ratioP1;P1;durP2;ratioP2;P2;SDS_P1;SDS_P2;PMS_P1;PMS_P2;Temp;Humidity;BMP_temperature;BMP_pressure;BME280_temperature;BME280_humidity;BME280_pressure;Samples;Min_cycle;Max_cycle;Signal;HPM_P1;HPM_P2
2021/10/23 00:01:45;;;;;;;1.98;1.63;;;6.50;99.90;;;;;;5048285;28;20200;-46
2021/10/23 00:04:12;;;;;;;2.97;1.27;;;6.40;99.90;;;;;;5050795;28;20392;-50
2021/10/23 00:06:40;;;;;;;4.82;1.45;;;6.40;99.90;;;;;;5050866;28;20259;-48
2021/10/23 00:09:07;;;;;;;1.50;1.40;;;6.30;99.90;;;;;;5049753;28;20200;-47
2021/10/23 00:11:34;;;;;;;1.33;1.23;;;6.20;99.90;;;;;;5052309;28;20262;-46
2021/10/23 00:14:01;;;;;;;1.05;0.98;;;6.20;99.90;;;;;;5048906;28;20282;-52
2021/10/23 00:16:29;;;;;;;1.60;1.50;;;6.10;99.90;;;;;;5051271;28;20285;-50
2021/10/23 00:18:56;;;;;;;2.47;2.38;;;6.10;99.90;;;;;;5049825;28;20241;-50
2021/10/23 00:21:23;;;;;;;6.45;1.63;;;6.10;99.90;;;;;;5051347;28;20211;-44
2021/10/23 00:23:50;;;;;;;3.72;1.58;;;6.00;99.90;;;;;;5050470;28;20230;-48
2021/10/23 00:26:18;;;;;;;2.83;1.20;;;5.90;99.90;;;;;;5049916;28;20223;-46
2021/10/23 00:28:45;;;;;;;1.90;1.80;;;5.90;99.90;;;;;;5050549;28;20250;-46
2021/10/23 00:31:12;;;;;;;2.90;1.23;;;5.80;99.90;;;;;;5048624;28;20204;-51
2021/10/23 00:33:39;;;;;;;2.38;1.33;;;5.80;99.90;;;;;;5050660;28;20295;-46
2021/10/23 00:36:07;;;;;;;1.40;1.30;;;5.80;99.90;;;;;;5049021;28;20234;-50
2021/10/23 00:38:34;;;;;;;0.80;0.80;;;5.70;99.90;;;;;;5050739;28;20434;-48
2021/10/23 00:41:03;;;;;;;5.22;1.38;;;5.70;99.90;;;;;;5049254;28;20219;-50
2021/10/23 00:43:30;;;;;;;1.98;1.20;;;5.70;99.90;;;;;;5050976;28;20205;-49
2021/10/23 00:45:57;;;;;;;4.10;1.35;;;5.70;99.90;;;;;;5050137;28;20210;-50
2021/10/23 00:48:25;;;;;;;1.10;1.00;;;5.70;99.90;;;;;;5048848;28;20214;-51
2021/10/23 00:50:52;;;;;;;1.60;1.15;;;5.70;99.90;;;;;;5050970;28;20246;-46
2021/10/23 00:53:22;;;;;;;5.25;1.30;;;5.70;99.90;;;;;;5048050;28;20234;-47
2021/10/23 00:55:50;;;;;;;3.17;1.25;;;5.60;99.90;;;;;;5050940;28;20424;-46
2021/10/23 00:58:17;;;;;;;2.38;1.67;;;5.70;99.90;;;;;;5049903;28;20222;-51
2021/10/23 01:00:45;;;;;;;1.92;1.20;;;5.60;99.90;;;;;;5050584;28;20277;-47
2021/10/23 01:03:14;;;;;;;1.30;1.20;;;5.70;99.90;;;;;;5047618;28;20210;-46
2021/10/23 01:05:43;;;;;;;1.45;1.35;;;5.70;99.90;;;;;;5051125;28;20270;-48
2021/10/23 01:08:10;;;;;;;1.70;1.60;;;5.70;99.90;;;;;;5047673;28;20238;-47
2021/10/23 01:10:37;;;;;;;1.30;1.20;;;5.70;99.90;;;;;;5051315;28;20273;-49
2021/10/23 01:13:05;;;;;;;2.95;1.27;;;5.70;99.90;;;;;;5048554;28;20227;-47
2021/10/23 01:15:34;;;;;;;2.50;1.60;;;5.70;99.90;;;;;;5042694;28;20289;-47
2021/10/23 01:18:04;;;;;;;3.58;1.70;;;5.60;99.90;;;;;;5047897;28;20289;-48
2021/10/23 01:20:33;;;;;;;2.65;1.52;;;5.60;99.90;;;;;;5051835;28;20451;-48
2021/10/23 01:23:01;;;;;;;8.52;1.67;;;5.70;99.90;;;;;;5047735;28;20260;-47
2021/10/23 01:25:30;;;;;;;3.42;1.38;;;5.70;99.90;;;;;;5052889;28;20204;-48
2021/10/23 01:28:00;;;;;;;5.50;1.63;;;5.60;99.90;;;;;;5044154;28;20589;-47
2021/10/23 01:30:28;;;;;;;1.90;1.73;;;5.70;99.90;;;;;;5050491;28;20253;-48
2021/10/23 01:32:57;;;;;;;5.32;1.45;;;5.70;99.90;;;;;;5047734;28;20441;-46
2021/10/23 01:35:25;;;;;;;2.00;1.73;;;5.60;99.90;;;;;;5050246;28;20203;-46
2021/10/23 01:37:54;;;;;;;2.55;1.40;;;5.60;99.90;;;;;;5048201;28;20231;-51
2021/10/23 01:40:32;;;;;;;4.90;1.65;;;5.50;99.90;;;;;;5033833;28;20191;-47
2021/10/23 01:43:02;;;;;;;3.05;1.10;;;5.60;99.90;;;;;;5046861;28;20211;-49
2021/10/23 01:45:30;;;;;;;1.00;1.00;;;5.50;99.90;;;;;;5045096;28;20206;-48
2021/10/23 01:47:58;;;;;;;0.90;0.90;;;5.60;99.90;;;;;;5050556;28;20242;-47
2021/10/23 01:50:27;;;;;;;1.88;1.27;;;5.60;99.90;;;;;;5048251;28;20214;-48
2021/10/23 01:52:56;;;;;;;1.63;1.48;;;5.70;99.90;;;;;;5043151;28;20220;-49
2021/10/23 01:55:23;;;;;;;1.40;1.33;;;5.70;99.90;;;;;;5053673;28;20206;-49
2021/10/23 01:57:51;;;;;;;2.92;1.25;;;5.70;99.90;;;;;;5046703;28;20243;-50
2021/10/23 02:00:18;;;;;;;5.78;1.55;;;5.70;99.90;;;;;;5049986;28;20207;-45
2021/10/23 02:02:46;;;;;;;3.47;1.50;;;5.60;99.90;;;;;;5049145;28;20253;-48
2021/10/23 02:05:13;;;;;;;1.20;1.10;;;5.60;99.90;;;;;;5049193;28;20222;-46
2021/10/23 02:07:41;;;;;;;1.60;1.20;;;5.50;99.90;;;;;;5050184;28;20546;-49
2021/10/23 02:10:09;;;;;;;2.72;1.67;;;5.60;99.90;;;;;;5048268;28;20253;-49
2021/10/23 02:12:36;;;;;;;2.15;1.35;;;5.60;99.90;;;;;;5049577;28;20316;-46
2021/10/23 02:15:04;;;;;;;9.18;1.63;;;5.60;99.90;;;;;;5045737;28;20261;-49
2021/10/23 02:17:33;;;;;;;1.60;1.50;;;5.50;99.90;;;;;;5049428;28;20294;-48
2021/10/23 02:20:00;;;;;;;3.58;2.08;;;5.60;99.90;;;;;;5048818;28;20235;-46
2021/10/23 02:22:28;;;;;;;2.90;1.60;;;5.60;99.90;;;;;;5049675;28;20203;-46
2021/10/23 02:24:55;;;;;;;3.00;1.38;;;5.60;99.90;;;;;;5049320;28;20212;-47
2021/10/23 02:27:22;;;;;;;2.15;1.95;;;5.60;99.90;;;;;;5049679;28;20553;-46
2021/10/23 02:29:49;;;;;;;3.28;1.42;;;5.60;99.90;;;;;;5048188;28;20204;-47
2021/10/23 02:32:17;;;;;;;3.42;1.65;;;5.60;99.90;;;;;;5049147;28;20244;-47
2021/10/23 02:34:44;;;;;;;4.65;4.35;;;5.70;99.90;;;;;;5049327;28;20363;-47
2021/10/23 02:37:12;;;;;;;4.15;1.70;;;5.70;99.90;;;;;;5047425;28;20224;-47
2021/10/23 02:39:39;;;;;;;6.28;2.20;;;5.70;99.90;;;;;;5049144;28;20199;-48
2021/10/23 02:42:06;;;;;;;4.40;2.38;;;5.70;99.90;;;;;;5049115;28;20431;-51
2021/10/23 02:44:34;;;;;;;2.00;1.77;;;5.70;99.90;;;;;;5049348;28;20203;-50
2021/10/23 02:47:02;;;;;;;7.68;2.50;;;5.60;99.90;;;;;;5047405;28;20223;-48
2021/10/23 02:49:29;;;;;;;1.98;1.25;;;5.70;99.90;;;;;;5051748;28;20228;-51
2021/10/23 02:51:56;;;;;;;3.30;1.42;;;5.70;99.90;;;;;;5052333;28;20195;-49
2021/10/23 02:54:23;;;;;;;1.98;1.40;;;5.70;99.90;;;;;;5051257;28;20287;-48
2021/10/23 02:56:50;;;;;;;2.63;1.48;;;5.70;99.90;;;;;;5053168;28;20230;-48
2021/10/23 02:59:18;;;;;;;1.73;1.63;;;5.60;99.90;;;;;;5051032;28;20212;-48
2021/10/23 03:01:45;;;;;;;1.63;1.52;;;5.70;99.90;;;;;;5052919;28;20323;-52
2021/10/23 03:04:13;;;;;;;2.10;1.90;;;5.60;99.90;;;;;;5051960;28;20285;-51
2021/10/23 03:06:44;;;;;;;2.95;1.55;;;5.60;99.90;;;;;;5052532;28;20235;-47
2021/10/23 03:09:13;;;;;;;1.67;1.35;;;5.70;99.90;;;;;;5050278;28;20350;-49
2021/10/23 03:11:41;;;;;;;3.65;1.65;;;5.60;99.90;;;;;;5053074;28;20302;-46
2021/10/23 03:14:08;;;;;;;6.20;2.53;;;5.50;99.90;;;;;;5050848;28;20230;-49
2021/10/23 03:16:36;;;;;;;8.07;2.35;;;5.50;99.90;;;;;;5053105;28;20233;-48
2021/10/23 03:19:04;;;;;;;3.55;1.67;;;5.60;99.90;;;;;;5050966;28;20549;-47
2021/10/23 03:21:31;;;;;;;6.72;1.88;;;5.60;99.90;;;;;;5053379;28;20218;-49
2021/10/23 03:23:58;;;;;;;1.70;1.60;;;5.60;99.90;;;;;;5051622;28;20230;-47
2021/10/23 03:26:25;;;;;;;1.58;1.45;;;5.60;99.90;;;;;;5049217;28;20231;-50
2021/10/23 03:28:53;;;;;;;2.45;2.00;;;5.60;99.90;;;;;;5054362;28;20207;-46
2021/10/23 03:31:20;;;;;;;8.70;2.65;;;5.60;99.90;;;;;;5048682;28;20415;-48
2021/10/23 03:33:47;;;;;;;1.75;1.40;;;5.60;99.90;;;;;;5055051;28;20621;-49
2021/10/23 03:36:15;;;;;;;5.53;1.73;;;5.60;99.90;;;;;;5049615;28;20349;-46
2021/10/23 03:38:43;;;;;;;3.25;2.15;;;5.60;99.90;;;;;;5055014;28;20206;-47
2021/10/23 03:41:10;;;;;;;5.10;3.08;;;5.60;99.90;;;;;;5049792;28;20521;-49
2021/10/23 03:43:37;;;;;;;3.58;1.98;;;5.60;99.90;;;;;;5048301;28;20506;-46
2021/10/23 03:46:04;;;;;;;2.63;2.25;;;5.60;99.90;;;;;;5054413;28;20216;-47
2021/10/23 03:48:32;;;;;;;2.28;1.67;;;5.60;99.90;;;;;;5046889;28;20204;-48
2021/10/23 03:51:00;;;;;;;5.32;2.15;;;5.60;99.90;;;;;;5050405;28;20278;-48
2021/10/23 03:53:27;;;;;;;4.32;2.10;;;5.60;99.90;;;;;;5051908;28;20226;-47
2021/10/23 03:55:54;;;;;;;4.90;2.08;;;5.60;99.90;;;;;;5049349;28;20203;-48
2021/10/23 03:58:22;;;;;;;3.60;1.90;;;5.60;99.90;;;;;;5052317;28;20563;-46
2021/10/23 04:00:49;;;;;;;6.32;3.25;;;5.50;99.90;;;;;;5051003;28;20499;-46
2021/10/23 04:03:16;;;;;;;4.80;2.15;;;5.50;99.90;;;;;;5051579;28;20653;-50
2021/10/23 04:05:44;;;;;;;5.28;2.30;;;5.50;99.90;;;;;;5052286;28;20518;-49
2021/10/23 04:08:11;;;;;;;1.75;1.50;;;5.50;99.90;;;;;;5069187;22;20231;-48
2021/10/23 04:10:39;;;;;;;3.10;2.00;;;5.50;99.90;;;;;;5051373;28;20386;-48
2021/10/23 04:13:06;;;;;;;2.88;2.00;;;5.40;99.90;;;;;;5053409;28;20442;-52
2021/10/23 04:15:33;;;;;;;3.53;1.70;;;5.40;99.90;;;;;;5052734;28;20249;-48
2021/10/23 04:18:02;;;;;;;6.40;2.47;;;5.40;99.90;;;;;;5053916;28;20265;-49
2021/10/23 04:20:29;;;;;;;2.70;2.42;;;5.40;99.90;;;;;;5053226;28;20490;-49
2021/10/23 04:22:56;;;;;;;3.08;1.88;;;5.30;99.90;;;;;;5055667;28;20254;-45
2021/10/23 04:25:24;;;;;;;6.55;4.82;;;5.30;99.90;;;;;;5053957;28;20220;-45
2021/10/23 04:27:51;;;;;;;3.28;2.00;;;5.30;99.90;;;;;;5049318;28;20293;-46
2021/10/23 04:30:18;;;;;;;3.17;1.95;;;5.30;99.90;;;;;;5054485;28;20214;-47
2021/10/23 04:32:45;;;;;;;6.20;3.25;;;5.30;99.90;;;;;;5051697;28;20427;-48
2021/10/23 04:35:12;;;;;;;1.77;1.67;;;5.40;99.90;;;;;;5054720;28;20258;-48
2021/10/23 04:37:40;;;;;;;3.70;2.47;;;5.40;99.90;;;;;;5052790;28;20290;-47
2021/10/23 04:40:08;;;;;;;2.88;2.67;;;5.40;99.90;;;;;;5055419;28;20242;-50
2021/10/23 04:42:36;;;;;;;7.00;2.58;;;5.40;99.90;;;;;;5054143;28;20241;-46
2021/10/23 04:45:04;;;;;;;5.28;2.15;;;5.40;99.90;;;;;;5048646;28;20200;-45
2021/10/23 04:47:32;;;;;;;2.13;1.95;;;5.50;99.90;;;;;;5054999;28;20288;-46
2021/10/23 04:49:59;;;;;;;5.45;1.80;;;5.40;99.90;;;;;;5051223;28;20265;-47
2021/10/23 04:52:26;;;;;;;3.83;1.50;;;5.40;99.90;;;;;;5050270;28;20208;-47
2021/10/23 04:54:54;;;;;;;7.38;2.25;;;5.40;99.90;;;;;;5057485;28;20349;-54
2021/10/23 04:57:21;;;;;;;5.25;2.30;;;5.40;99.90;;;;;;5053920;28;20231;-51
2021/10/23 04:59:48;;;;;;;5.50;2.10;;;5.30;99.90;;;;;;5058314;28;20296;-54
2021/10/23 05:02:15;;;;;;;10.15;1.75;;;5.30;99.90;;;;;;5057315;28;20244;-50
2021/10/23 05:04:43;;;;;;;7.80;1.80;;;5.30;99.90;;;;;;5058253;28;20207;-50
2021/10/23 05:07:10;;;;;;;3.90;1.52;;;5.30;99.90;;;;;;5055290;28;20241;-49
2021/10/23 05:09:37;;;;;;;4.95;1.75;;;5.40;99.90;;;;;;5047173;28;20232;-54
2021/10/23 05:12:04;;;;;;;0.85;0.85;;;5.40;99.90;;;;;;5054072;28;20249;-48
2021/10/23 05:14:32;;;;;;;1.77;1.60;;;5.40;99.90;;;;;;5049923;28;20298;-47
2021/10/23 05:16:59;;;;;;;5.13;1.65;;;5.50;99.90;;;;;;5054451;28;20227;-54
2021/10/23 05:19:26;;;;;;;3.95;1.70;;;5.50;99.90;;;;;;5051600;28;20211;-46
2021/10/23 05:21:53;;;;;;;4.22;2.22;;;5.50;99.90;;;;;;5054042;28;20203;-51
2021/10/23 05:24:21;;;;;;;4.88;1.42;;;5.50;99.90;;;;;;5044686;28;20526;-48
2021/10/23 05:26:50;;;;;;;4.40;1.52;;;5.50;99.90;;;;;;5046951;28;20383;-50
2021/10/23 05:29:17;;;;;;;2.90;1.10;;;5.50;99.90;;;;;;5055636;28;20209;-48
2021/10/23 05:31:44;;;;;;;2.20;1.55;;;5.50;99.90;;;;;;5043177;28;20417;-53
2021/10/23 05:34:12;;;;;;;4.32;1.85;;;5.50;99.90;;;;;;5055500;28;20546;-46
2021/10/23 05:36:39;;;;;;;3.90;1.45;;;5.50;99.90;;;;;;5050110;28;20217;-53
2021/10/23 05:39:06;;;;;;;12.80;2.38;;;5.60;99.90;;;;;;5056172;28;20259;-50
2021/10/23 05:41:33;;;;;;;2.95;1.10;;;5.60;99.90;;;;;;5052514;28;20223;-49
2021/10/23 05:44:01;;;;;;;6.85;2.10;;;5.70;99.90;;;;;;5048062;28;20475;-49
2021/10/23 05:46:29;;;;;;;5.78;2.13;;;5.70;99.90;;;;;;5054395;28;20242;-50
2021/10/23 05:48:56;;;;;;;7.00;2.70;;;5.70;99.90;;;;;;5047911;28;20203;-51
2021/10/23 05:51:24;;;;;;;4.80;1.95;;;5.70;99.90;;;;;;5051195;28;20211;-49
2021/10/23 05:53:51;;;;;;;2.38;2.08;;;5.70;99.90;;;;;;5048311;28;20226;-45
2021/10/23 05:56:19;;;;;;;4.40;2.08;;;5.70;99.90;;;;;;5037192;28;20200;-47
2021/10/23 05:58:46;;;;;;;3.70;1.83;;;5.80;99.90;;;;;;5050346;28;20467;-48
2021/10/23 06:01:14;;;;;;;4.25;1.75;;;5.80;99.90;;;;;;5053538;28;20484;-50
2021/10/23 06:03:41;;;;;;;2.15;1.20;;;5.80;99.90;;;;;;5052158;28;20214;-48
2021/10/23 06:06:09;;;;;;;2.25;1.65;;;5.80;99.90;;;;;;5054418;28;20223;-50
2021/10/23 06:08:37;;;;;;;2.70;1.80;;;5.80;99.90;;;;;;5052262;28;20231;-48
2021/10/23 06:11:05;;;;;;;2.30;2.10;;;5.80;99.90;;;;;;5047375;28;20200;-48
2021/10/23 06:13:32;;;;;;;9.98;3.15;;;5.90;99.90;;;;;;5053233;28;20249;-51
2021/10/23 06:16:00;;;;;;;2.28;2.10;;;5.90;99.90;;;;;;5048859;28;20210;-51
2021/10/23 06:18:27;;;;;;;1.52;1.40;;;5.90;99.90;;;;;;5053894;28;20378;-46
2021/10/23 06:20:55;;;;;;;2.17;1.63;;;6.10;99.90;;;;;;5050675;28;20211;-49
2021/10/23 06:23:22;;;;;;;3.85;2.00;;;6.20;99.90;;;;;;5055882;28;20209;-52
2021/10/23 06:25:50;;;;;;;3.28;1.80;;;6.10;99.90;;;;;;5056382;28;20239;-49
2021/10/23 06:28:17;;;;;;;2.70;1.75;;;6.20;99.90;;;;;;5044803;28;20265;-54
2021/10/23 06:30:44;;;;;;;3.42;2.55;;;6.30;99.90;;;;;;5056929;28;20207;-50
2021/10/23 06:33:11;;;;;;;3.45;1.23;;;6.30;99.90;;;;;;5053640;28;20204;-59
2021/10/23 06:35:39;;;;;;;4.50;2.20;;;6.30;99.90;;;;;;5064545;28;20222;-51
2021/10/23 06:38:06;;;;;;;6.30;3.60;;;6.50;99.90;;;;;;5037888;28;20263;-54
2021/10/23 06:40:33;;;;;;;2.28;1.88;;;6.50;99.90;;;;;;5046782;28;20336;-50
2021/10/23 06:43:00;;;;;;;3.90;1.65;;;6.60;99.90;;;;;;5042076;28;20196;-48
2021/10/23 06:45:30;;;;;;;2.25;1.70;;;6.70;99.90;;;;;;5042515;28;20215;-50
2021/10/23 06:47:59;;;;;;;3.50;1.73;;;6.80;99.90;;;;;;5044215;28;20550;-46
2021/10/23 06:50:27;;;;;;;2.00;1.80;;;6.90;99.90;;;;;;5035107;28;20445;-49
2021/10/23 06:52:54;;;;;;;3.50;1.67;;;7.00;99.90;;;;;;5050086;28;20204;-48
2021/10/23 06:55:21;;;;;;;3.42;2.00;;;7.00;99.90;;;;;;5058198;28;20246;-58
2021/10/23 06:57:49;;;;;;;4.10;2.42;;;7.10;99.90;;;;;;5051031;28;20820;-51
2021/10/23 07:00:16;;;;;;;3.67;1.80;;;7.10;99.90;;;;;;5059120;28;20394;-48
2021/10/23 07:02:45;;;;;;;2.15;1.50;;;7.20;99.90;;;;;;5047355;28;20641;-55
2021/10/23 07:05:17;;;;;;;3.88;1.63;;;7.30;99.90;;;;;;5039326;28;20224;-49
2021/10/23 07:07:45;;;;;;;4.30;1.92;;;7.60;99.90;;;;;;5041983;28;20239;-47
2021/10/23 07:10:13;;;;;;;3.03;1.70;;;7.70;99.90;;;;;;5043979;28;20305;-49
2021/10/23 07:12:45;;;;;;;7.97;1.90;;;8.00;99.90;;;;;;5044408;28;20247;-49
2021/10/23 07:15:12;;;;;;;3.75;1.90;;;8.60;99.90;;;;;;5046982;28;20221;-50
2021/10/23 07:17:40;;;;;;;4.60;2.17;;;9.10;99.90;;;;;;5047119;28;20574;-50
2021/10/23 07:20:07;;;;;;;3.20;1.90;;;9.50;99.90;;;;;;5041834;28;20197;-47
2021/10/23 07:22:35;;;;;;;8.98;3.10;;;10.00;99.90;;;;;;5040136;28;20265;-50
2021/10/23 07:25:03;;;;;;;5.93;2.50;;;10.70;99.90;;;;;;5048051;28;20249;-48
2021/10/23 07:27:31;;;;;;;6.70;1.80;;;11.50;99.90;;;;;;5041866;28;20232;-48
2021/10/23 07:29:58;;;;;;;2.95;2.15;;;11.70;99.90;;;;;;5051660;28;20394;-49
2021/10/23 07:32:26;;;;;;;4.35;2.65;;;12.00;99.90;;;;;;5047884;28;20223;-51
2021/10/23 07:34:53;;;;;;;3.65;2.65;;;12.50;99.90;;;;;;5047503;28;20266;-47
2021/10/23 07:37:20;;;;;;;5.55;2.78;;;13.00;99.90;;;;;;5039935;28;20273;-48
2021/10/23 07:39:47;;;;;;;4.53;2.50;;;12.90;99.90;;;;;;5043535;28;20209;-48
2021/10/23 07:42:14;;;;;;;2.58;2.40;;;12.80;99.90;;;;;;5054668;28;20419;-55
2021/10/23 07:44:42;;;;;;;2.90;2.60;;;13.50;99.90;;;;;;5046497;28;20255;-46
2021/10/23 07:47:11;;;;;;;3.75;2.75;;;13.80;99.90;;;;;;5051634;28;20220;-46
2021/10/23 07:49:40;;;;;;;4.47;3.28;;;13.90;99.90;;;;;;5054965;28;20552;-46
2021/10/23 07:52:08;;;;;;;5.07;2.85;;;12.70;99.90;;;;;;5044511;28;20248;-50
2021/10/23 07:54:39;;;;;;;9.52;3.88;;;12.80;99.90;;;;;;5054510;28;20568;-50
2021/10/23 07:57:06;;;;;;;3.08;2.70;;;12.40;99.90;;;;;;5037544;28;20661;-50
2021/10/23 07:59:34;;;;;;;4.30;2.65;;;11.90;99.90;;;;;;5022178;28;20208;-48
2021/10/23 08:02:10;;;;;;;2.05;1.95;;;11.50;99.90;;;;;;5024556;28;20208;-48
2021/10/23 08:04:37;;;;;;;7.50;2.55;;;11.50;99.90;;;;;;5021631;28;20404;-47
2021/10/23 08:07:05;;;;;;;5.75;3.42;;;11.70;99.90;;;;;;5024849;28;20551;-50
2021/10/23 08:09:34;;;;;;;2.97;2.78;;;12.10;99.90;;;;;;5028014;28;20443;-47
2021/10/23 08:12:04;;;;;;;8.23;3.17;;;12.70;99.90;;;;;;5023745;28;20200;-46
2021/10/23 08:14:33;;;;;;;2.28;2.10;;;12.40;99.90;;;;;;5022247;28;20228;-48
2021/10/23 08:17:00;;;;;;;8.20;2.75;;;12.30;99.90;;;;;;5023285;28;20224;-49
2021/10/23 08:19:27;;;;;;;2.17;1.92;;;12.20;99.90;;;;;;5051362;28;20203;-48
2021/10/23 08:21:54;;;;;;;2.60;2.47;;;12.20;99.90;;;;;;5040791;28;20200;-47
2021/10/23 08:24:21;;;;;;;6.03;3.85;;;11.90;99.90;;;;;;5042482;28;20212;-46
2021/10/23 08:26:49;;;;;;;7.85;3.17;;;11.60;99.90;;;;;;5052054;28;20230;-49
2021/10/23 08:29:16;;;;;;;3.53;2.47;;;11.10;99.90;;;;;;5044611;28;20445;-51
2021/10/23 08:31:44;;;;;;;11.38;3.50;;;10.80;99.90;;;;;;5034563;28;20203;-51
2021/10/23 08:34:12;;;;;;;5.82;3.33;;;10.90;99.90;;;;;;5053617;28;20326;-49
2021/10/23 08:36:39;;;;;;;3.15;2.03;;;11.70;99.90;;;;;;5045711;28;20219;-50
2021/10/23 08:39:07;;;;;;;3.85;2.85;;;12.30;99.90;;;;;;5046787;28;20249;-49
2021/10/23 08:41:34;;;;;;;4.20;2.40;;;12.70;99.90;;;;;;5045740;28;20267;-50
2021/10/23 08:44:04;;;;;;;2.95;2.75;;;12.70;99.90;;;;;;5055251;28;20207;-51
2021/10/23 08:46:35;;;;;;;5.13;2.10;;;12.20;99.90;;;;;;5050324;28;20210;-46
2021/10/23 08:49:04;;;;;;;6.60;3.63;;;11.70;99.90;;;;;;5049186;28;20266;-50
2021/10/23 08:51:32;;;;;;;7.95;2.70;;;11.80;99.90;;;;;;5052188;28;20245;-50
2021/10/23 08:54:01;;;;;;;10.05;3.20;;;11.70;99.90;;;;;;5048079;28;20260;-47
2021/10/23 08:56:33;;;;;;;2.90;2.70;;;11.50;99.90;;;;;;5054547;28;20252;-48
2021/10/23 08:59:00;;;;;;;3.55;3.30;;;11.30;99.90;;;;;;5049144;28;20403;-46
2021/10/23 09:01:27;;;;;;;4.05;2.45;;;10.80;99.90;;;;;;5045948;28;20206;-48
2021/10/23 09:03:55;;;;;;;2.20;2.00;;;10.60;99.90;;;;;;5051524;28;20504;-50
2021/10/23 09:06:37;;;;;;;3.30;2.65;;;10.50;99.90;;;;;;5041407;28;20209;-49
2021/10/23 09:09:08;;;;;;;9.48;3.05;;;10.70;99.90;;;;;;5051971;28;20260;-49
2021/10/23 09:11:40;;;;;;;10.80;2.42;;;10.90;99.90;;;;;;5049200;28;20197;-49
2021/10/23 09:14:20;;;;;;;4.00;2.90;;;11.20;99.90;;;;;;5052467;28;20209;-50
2021/10/23 09:17:10;;;;;;;3.30;2.28;;;11.10;99.90;;;;;;5037876;28;20254;-48
2021/10/23 09:19:45;;;;;;;5.43;2.85;;;10.70;99.90;;;;;;5039885;28;20207;-47
2021/10/23 09:22:27;;;;;;;6.72;3.13;;;10.60;99.90;;;;;;5049968;28;20245;-54
2021/10/23 09:25:24;;;;;;;2.50;2.30;;;10.70;99.90;;;;;;5038850;28;20249;-50
2021/10/23 09:28:06;;;;;;;5.07;2.28;;;10.60;99.90;;;;;;5051498;28;20234;-51
2021/10/23 09:30:37;;;;;;;3.00;2.80;;;10.50;99.90;;;;;;5040388;28;20561;-51
2021/10/23 09:33:07;;;;;;;2.42;2.22;;;10.80;99.90;;;;;;5048390;28;20256;-51
2021/10/23 09:35:39;;;;;;;6.20;2.30;;;10.80;99.90;;;;;;5037804;28;20245;-50
2021/10/23 09:38:09;;;;;;;9.13;3.50;;;10.90;99.90;;;;;;5048491;28;20279;-43
2021/10/23 09:40:38;;;;;;;6.03;3.65;;;10.90;99.90;;;;;;5049227;28;20198;-49
2021/10/23 09:43:29;;;;;;;4.35;2.70;;;11.10;99.90;;;;;;5038242;28;20231;-48
2021/10/23 09:45:59;;;;;;;6.78;2.88;;;11.30;99.90;;;;;;5047362;28;20258;-51
2021/10/23 09:48:37;;;;;;;3.65;3.33;;;11.30;99.90;;;;;;5046163;28;21043;-51
2021/10/23 09:51:12;;;;;;;4.10;2.40;;;11.20;99.90;;;;;;5042548;28;20211;-48
2021/10/23 09:53:41;;;;;;;5.75;2.80;;;11.20;99.90;;;;;;5047583;28;20267;-51
2021/10/23 09:56:14;;;;;;;4.18;2.35;;;11.30;99.90;;;;;;5042111;28;20303;-53
2021/10/23 09:58:52;;;;;;;5.03;2.40;;;11.30;99.90;;;;;;5049557;28;20289;-49
2021/10/23 10:01:32;;;;;;;5.82;3.20;;;11.50;99.90;;;;;;5048488;28;20210;-49
2021/10/23 10:04:06;;;;;;;2.75;2.38;;;11.50;99.90;;;;;;5042741;28;20202;-47
2021/10/23 10:06:47;;;;;;;6.75;3.08;;;11.20;99.90;;;;;;5058090;28;20232;-50
2021/10/23 10:09:20;;;;;;;5.18;2.85;;;11.30;99.90;;;;;;5051657;23;20239;-47
2021/10/23 10:11:53;;;;;;;2.22;2.13;;;11.20;99.90;;;;;;5029827;28;20214;-49
2021/10/23 10:14:34;;;;;;;3.85;2.80;;;11.00;99.90;;;;;;5031345;28;20203;-52
2021/10/23 10:17:03;;;;;;;6.28;3.13;;;11.00;99.90;;;;;;5029114;28;20207;-51
2021/10/23 10:19:31;;;;;;;6.00;3.20;;;11.20;99.90;;;;;;5034431;28;20231;-51
2021/10/23 10:22:10;;;;;;;5.43;3.08;;;11.10;99.90;;;;;;5036548;28;20209;-51
2021/10/23 10:24:39;;;;;;;3.95;2.75;;;11.20;99.90;;;;;;5030967;28;20215;-50
2021/10/23 10:27:12;;;;;;;3.97;2.70;;;11.30;99.90;;;;;;5034684;28;20206;-52
2021/10/23 10:30:02;;;;;;;8.52;3.00;;;11.40;99.90;;;;;;5030315;28;20202;-51
2021/10/23 10:32:39;;;;;;;2.42;2.22;;;11.30;99.90;;;;;;5037651;28;20203;-51
2021/10/23 10:43:13;;;;;;;3.50;3.30;;;11.60;99.90;;;;;;5034631;28;20264;-53
2021/10/23 10:45:41;;;;;;;3.40;2.50;;;12.00;99.90;;;;;;5033402;28;20457;-52
2021/10/23 10:48:37;;;;;;;5.20;3.30;;;11.80;99.90;;;;;;5031530;28;20321;-50
2021/10/23 10:51:05;;;;;;;4.43;3.47;;;11.60;99.90;;;;;;5032404;28;20269;-50
2021/10/23 10:53:39;;;;;;;3.78;2.88;;;11.30;99.90;;;;;;5021743;28;20207;-50
2021/10/23 10:56:09;;;;;;;5.13;3.33;;;11.20;99.90;;;;;;5022314;28;20534;-50
2021/10/23 10:58:55;;;;;;;7.03;3.50;;;11.20;99.90;;;;;;5035617;28;20250;-54
2021/10/23 11:01:25;;;;;;;10.23;3.65;;;11.30;99.90;;;;;;5026120;28;20204;-50
2021/10/23 11:03:52;;;;;;;6.55;3.70;;;11.50;99.90;;;;;;5028721;28;20270;-50
2021/10/23 11:09:19;;;;;;;5.68;3.45;;;12.20;99.90;;;;;;5026790;28;20235;-48
2021/10/23 11:11:50;;;;;;;3.30;3.00;;;12.30;99.90;;;;;;5027298;28;20212;-52
2021/10/23 11:14:23;;;;;;;2.67;2.47;;;12.20;99.90;;;;;;5026452;28;20282;-50
2021/10/23 11:16:54;;;;;;;3.88;3.40;;;12.10;99.90;;;;;;5026266;28;20294;-51
2021/10/23 11:19:38;;;;;;;6.50;3.10;;;12.00;99.90;;;;;;5031161;28;20223;-50
2021/10/23 11:22:12;;;;;;;3.10;2.90;;;12.00;99.90;;;;;;5035459;28;20253;-51
2021/10/23 11:25:04;;;;;;;4.75;2.60;;;12.10;99.90;;;;;;5030488;28;20206;-52
2021/10/23 11:27:41;;;;;;;5.35;3.35;;;12.00;99.90;;;;;;5033882;28;20254;-51
2021/10/23 11:30:25;;;;;;;6.55;3.00;;;11.90;99.90;;;;;;5028977;28;20199;-50
2021/10/23 11:33:02;;;;;;;10.52;4.28;;;11.70;99.90;;;;;;5033125;28;20227;-50
2021/10/23 11:35:38;;;;;;;5.00;3.20;;;11.60;99.90;;;;;;5027339;28;20231;-50
2021/10/23 11:38:16;;;;;;;6.15;2.75;;;11.50;99.90;;;;;;5032966;28;20277;-50
2021/10/23 11:40:44;;;;;;;8.10;3.60;;;11.30;99.90;;;;;;5027000;28;20238;-49
2021/10/23 11:43:18;;;;;;;7.45;2.67;;;11.20;99.90;;;;;;5032326;28;20207;-49
2021/10/23 11:45:46;;;;;;;6.72;3.28;;;11.20;99.90;;;;;;5024555;28;20430;-51
2021/10/23 11:48:17;;;;;;;5.53;2.83;;;11.40;99.90;;;;;;5028823;28;21542;-51
2021/10/23 11:50:46;;;;;;;5.88;2.80;;;11.80;99.90;;;;;;5034283;28;20203;-48
2021/10/23 11:53:21;;;;;;;6.28;2.83;;;11.90;99.90;;;;;;5022267;28;20208;-49
2021/10/23 11:55:53;;;;;;;3.78;2.90;;;12.00;99.90;;;;;;5027457;28;20250;-52
2021/10/23 11:58:24;;;;;;;3.60;2.42;;;11.90;99.90;;;;;;5028916;28;20235;-50
2021/10/23 12:01:07;;;;;;;2.88;2.67;;;12.10;99.90;;;;;;5026433;28;20266;-52
2021/10/23 12:03:42;;;;;;;6.47;3.67;;;12.30;99.90;;;;;;5027259;28;20214;-50
2021/10/23 12:06:22;;;;;;;3.15;2.60;;;12.40;99.90;;;;;;5023763;28;20211;-50
2021/10/23 12:08:56;;;;;;;4.20;3.38;;;12.30;99.90;;;;;;5026999;28;20261;-50
2021/10/23 12:11:29;;;;;;;10.75;3.00;;;12.10;99.90;;;;;;5021125;28;20333;-52
2021/10/23 12:14:03;;;;;;;3.40;2.80;;;12.00;99.90;;;;;;5033503;28;20207;-50
2021/10/23 12:16:41;;;;;;;3.80;3.08;;;11.90;99.90;;;;;;5030246;28;20541;-49
2021/10/23 12:19:11;;;;;;;10.13;4.18;;;11.80;99.90;;;;;;5027450;28;20402;-52
2021/10/23 12:21:52;;;;;;;3.58;3.28;;;11.90;99.90;;;;;;5028182;28;20211;-51
2021/10/23 12:24:34;;;;;;;7.68;3.00;;;12.10;99.90;;;;;;5030019;28;20203;-49
2021/10/23 12:27:13;;;;;;;3.45;2.70;;;12.10;99.90;;;;;;5033513;28;20444;-49
2021/10/23 12:29:46;;;;;;;4.95;3.08;;;12.00;99.90;;;;;;5031998;28;20575;-52
2021/10/23 12:32:33;;;;;;;5.15;3.00;;;11.90;99.90;;;;;;5030199;28;20486;-51
2021/10/23 12:35:07;;;;;;;4.07;3.38;;;11.80;99.90;;;;;;5028551;28;20379;-49
2021/10/23 12:37:47;;;;;;;5.47;3.45;;;11.70;99.90;;;;;;5035028;28;20246;-53
2021/10/23 12:40:24;;;;;;;8.25;3.35;;;11.60;99.90;;;;;;5037672;28;20274;-50
2021/10/23 12:43:07;;;;;;;4.00;3.03;;;11.30;99.90;;;;;;5020699;28;20211;-54
2021/10/23 12:45:49;;;;;;;3.55;2.78;;;11.20;99.90;;;;;;5031507;28;20210;-53
2021/10/23 12:48:19;;;;;;;3.55;2.85;;;11.10;99.90;;;;;;5033114;28;20227;-51
2021/10/23 12:50:48;;;;;;;3.67;2.67;;;10.90;99.90;;;;;;5031618;28;20204;-50
2021/10/23 12:53:16;;;;;;;5.78;3.10;;;10.90;99.90;;;;;;5036782;28;20243;-54
2021/10/23 12:55:44;;;;;;;4.60;2.55;;;11.00;99.90;;;;;;5032909;28;20257;-50
2021/10/23 12:58:12;;;;;;;2.92;2.45;;;10.70;99.90;;;;;;5036472;28;20275;-51
2021/10/23 13:00:40;;;;;;;2.20;2.10;;;9.90;99.90;;;;;;5032142;28;20205;-52
2021/10/23 13:03:08;;;;;;;2.53;2.30;;;9.10;99.90;;;;;;5033819;28;20205;-52
2021/10/23 13:05:36;;;;;;;4.88;2.75;;;8.70;99.90;;;;;;5037208;28;20228;-51
2021/10/23 13:08:04;;;;;;;4.88;2.92;;;8.50;99.90;;;;;;5035501;28;20228;-53
2021/10/23 13:10:31;;;;;;;2.75;2.33;;;8.60;99.90;;;;;;5038494;28;20208;-50
2021/10/23 13:12:59;;;;;;;2.22;1.80;;;8.70;99.90;;;;;;5032898;28;20201;-51
2021/10/23 13:15:26;;;;;;;4.90;2.40;;;8.70;99.90;;;;;;5035125;28;20244;-47
2021/10/23 13:17:54;;;;;;;4.20;3.47;;;8.70;99.90;;;;;;5032905;28;20216;-51